sensor_id;sensor_type;location;lat;lon;timestamp;P1;durP1;ratioP1;P2;durP2;ratioP2
2728;SDS011;1372;47.956;7.830;2023-05-20T00:01:58;6.20;;;5.60;;
2728;SDS011;1372;47.956;7.830;2023-05-20T00:04:27;6.63;;;6.03;;
2728;SDS011;1372;47.956;7.830;2023-05-20T00:06:56;6.30;;;5.70;;
2728;SDS011;1372;47.956;7.830;2023-05-20T00:09:26;6.43;;;5.83;;
2728;SDS011;1372;47.956;7.830;2023-05-20T00:11:55;7.30;;;5.40;;
2728;SDS011;1372;47.956;7.830;2023-05-20T00:14:24;6.03;;;5.53;;
2728;SDS011;1372;47.956;7.830;2023-05-20T00:16:53;6.93;;;5.00;;
2728;SDS011;1372;47.956;7.830;2023-05-20T00:19:22;7.03;;;5.57;;
2728;SDS011;1372;47.956;7.830;2023-05-20T00:21:51;5.47;;;4.97;;
2728;SDS011;1372;47.956;7.830;2023-05-20T00:24:20;5.70;;;5.20;;
2728;SDS011;1372;47.956;7.830;2023-05-20T00:26:50;5.47;;;4.97;;
2728;SDS011;1372;47.956;7.830;2023-05-20T00:29:20;6.13;;;4.90;;
2728;SDS011;1372;47.956;7.830;2023-05-20T00:31:49;6.53;;;5.23;;
2728;SDS011;1372;47.956;7.830;2023-05-20T00:34:18;6.50;;;5.30;;
2728;SDS011;1372;47.956;7.830;2023-05-20T00:36:49;6.17;;;5.60;;
2728;SDS011;1372;47.956;7.830;2023-05-20T00:39:18;5.67;;;5.00;;
2728;SDS011;1372;47.956;7.830;2023-05-20T00:41:47;5.20;;;4.70;;
2728;SDS011;1372;47.956;7.830;2023-05-20T00:44:17;5.30;;;4.80;;
2728;SDS011;1372;47.956;7.830;2023-05-20T00:46:49;5.90;;;5.07;;
2728;SDS011;1372;47.956;7.830;2023-05-20T00:49:18;5.33;;;4.93;;
2728;SDS011;1372;47.956;7.830;2023-05-20T00:51:48;6.70;;;5.70;;
2728;SDS011;1372;47.956;7.830;2023-05-20T00:54:18;6.17;;;5.23;;
2728;SDS011;1372;47.956;7.830;2023-05-20T00:56:47;6.80;;;5.07;;
2728;SDS011;1372;47.956;7.830;2023-05-20T00:59:17;5.60;;;5.17;;
2728;SDS011;1372;47.956;7.830;2023-05-20T01:01:46;5.67;;;5.10;;
2728;SDS011;1372;47.956;7.830;2023-05-20T01:04:15;6.40;;;5.10;;
2728;SDS011;1372;47.956;7.830;2023-05-20T01:06:44;7.37;;;5.37;;
2728;SDS011;1372;47.956;7.830;2023-05-20T01:09:13;5.73;;;5.20;;
2728;SDS011;1372;47.956;7.830;2023-05-20T01:11:43;8.90;;;5.07;;
2728;SDS011;1372;47.956;7.830;2023-05-20T01:14:19;5.97;;;5.37;;
2728;SDS011;1372;47.956;7.830;2023-05-20T01:16:51;5.50;;;5.00;;
2728;SDS011;1372;47.956;7.830;2023-05-20T01:19:27;5.80;;;4.90;;
2728;SDS011;1372;47.956;7.830;2023-05-20T01:22:05;6.23;;;5.60;;
2728;SDS011;1372;47.956;7.830;2023-05-20T01:24:40;4.83;;;4.43;;
2728;SDS011;1372;47.956;7.830;2023-05-20T01:27:10;5.67;;;5.13;;
2728;SDS011;1372;47.956;7.830;2023-05-20T01:29:40;5.63;;;5.13;;
2728;SDS011;1372;47.956;7.830;2023-05-20T01:32:14;5.70;;;5.10;;
2728;SDS011;1372;47.956;7.830;2023-05-20T01:34:47;5.70;;;5.20;;
2728;SDS011;1372;47.956;7.830;2023-05-20T01:37:21;6.30;;;5.70;;
2728;SDS011;1372;47.956;7.830;2023-05-20T01:39:53;6.00;;;5.40;;
2728;SDS011;1372;47.956;7.830;2023-05-20T01:42:23;6.23;;;5.20;;
2728;SDS011;1372;47.956;7.830;2023-05-20T01:44:54;5.90;;;5.40;;
2728;SDS011;1372;47.956;7.830;2023-05-20T01:47:28;5.37;;;4.97;;
2728;SDS011;1372;47.956;7.830;2023-05-20T01:49:57;7.00;;;5.40;;
2728;SDS011;1372;47.956;7.830;2023-05-20T01:52:26;8.33;;;6.10;;
2728;SDS011;1372;47.956;7.830;2023-05-20T01:54:56;7.10;;;5.60;;
2728;SDS011;1372;47.956;7.830;2023-05-20T01:57:27;5.87;;;5.27;;
2728;SDS011;1372;47.956;7.830;2023-05-20T01:59:56;8.13;;;5.67;;
2728;SDS011;1372;47.956;7.830;2023-05-20T02:02:25;5.93;;;5.27;;
2728;SDS011;1372;47.956;7.830;2023-05-20T02:04:54;6.30;;;5.70;;
2728;SDS011;1372;47.956;7.830;2023-05-20T02:07:22;7.13;;;5.83;;
2728;SDS011;1372;47.956;7.830;2023-05-20T02:09:51;6.40;;;5.80;;
2728;SDS011;1372;47.956;7.830;2023-05-20T02:12:21;6.27;;;5.03;;
2728;SDS011;1372;47.956;7.830;2023-05-20T02:14:50;6.27;;;5.67;;
2728;SDS011;1372;47.956;7.830;2023-05-20T02:17:20;6.37;;;5.77;;
2728;SDS011;1372;47.956;7.830;2023-05-20T02:19:49;6.37;;;5.77;;
2728;SDS011;1372;47.956;7.830;2023-05-20T02:22:18;5.87;;;5.37;;
2728;SDS011;1372;47.956;7.830;2023-05-20T02:24:47;6.07;;;5.47;;
2728;SDS011;1372;47.956;7.830;2023-05-20T02:27:16;5.73;;;5.20;;
2728;SDS011;1372;47.956;7.830;2023-05-20T02:29:46;6.23;;;5.67;;
2728;SDS011;1372;47.956;7.830;2023-05-20T02:32:15;5.60;;;5.20;;
2728;SDS011;1372;47.956;7.830;2023-05-20T02:34:44;7.13;;;5.37;;
2728;SDS011;1372;47.956;7.830;2023-05-20T02:37:13;7.37;;;5.33;;
2728;SDS011;1372;47.956;7.830;2023-05-20T02:39:42;5.77;;;5.27;;
2728;SDS011;1372;47.956;7.830;2023-05-20T02:42:10;5.73;;;5.23;;
2728;SDS011;1372;47.956;7.830;2023-05-20T02:44:39;7.00;;;6.30;;
2728;SDS011;1372;47.956;7.830;2023-05-20T02:47:10;6.27;;;5.67;;
2728;SDS011;1372;47.956;7.830;2023-05-20T02:49:39;6.50;;;5.83;;
2728;SDS011;1372;47.956;7.830;2023-05-20T02:52:07;5.70;;;5.20;;
2728;SDS011;1372;47.956;7.830;2023-05-20T02:54:36;4.90;;;4.50;;
2728;SDS011;1372;47.956;7.830;2023-05-20T02:57:06;5.67;;;5.27;;
2728;SDS011;1372;47.956;7.830;2023-05-20T02:59:35;5.93;;;5.33;;
2728;SDS011;1372;47.956;7.830;2023-05-20T03:02:04;5.23;;;4.83;;
2728;SDS011;1372;47.956;7.830;2023-05-20T03:04:34;7.37;;;5.50;;
2728;SDS011;1372;47.956;7.830;2023-05-20T03:07:04;5.37;;;4.97;;
2728;SDS011;1372;47.956;7.830;2023-05-20T03:09:34;5.97;;;5.37;;
2728;SDS011;1372;47.956;7.830;2023-05-20T03:12:03;5.80;;;5.20;;
2728;SDS011;1372;47.956;7.830;2023-05-20T03:14:33;5.83;;;5.33;;
2728;SDS011;1372;47.956;7.830;2023-05-20T03:17:02;6.03;;;4.90;;
2728;SDS011;1372;47.956;7.830;2023-05-20T03:19:31;6.27;;;5.73;;
2728;SDS011;1372;47.956;7.830;2023-05-20T03:22:01;5.40;;;4.90;;
2728;SDS011;1372;47.956;7.830;2023-05-20T03:24:30;5.73;;;5.23;;
2728;SDS011;1372;47.956;7.830;2023-05-20T03:26:59;7.77;;;5.90;;
2728;SDS011;1372;47.956;7.830;2023-05-20T03:29:29;5.40;;;4.90;;
2728;SDS011;1372;47.956;7.830;2023-05-20T03:31:59;5.47;;;4.97;;
2728;SDS011;1372;47.956;7.830;2023-05-20T03:34:35;5.40;;;4.97;;
2728;SDS011;1372;47.956;7.830;2023-05-20T03:37:05;5.43;;;4.97;;
2728;SDS011;1372;47.956;7.830;2023-05-20T03:39:35;5.40;;;4.67;;
2728;SDS011;1372;47.956;7.830;2023-05-20T03:42:14;7.63;;;5.70;;
2728;SDS011;1372;47.956;7.830;2023-05-20T03:44:43;6.63;;;5.33;;
2728;SDS011;1372;47.956;7.830;2023-05-20T03:47:11;7.87;;;5.70;;
2728;SDS011;1372;47.956;7.830;2023-05-20T03:49:40;7.37;;;5.23;;
2728;SDS011;1372;47.956;7.830;2023-05-20T03:52:10;6.07;;;5.23;;
2728;SDS011;1372;47.956;7.830;2023-05-20T03:54:39;5.97;;;5.23;;
2728;SDS011;1372;47.956;7.830;2023-05-20T03:57:08;6.07;;;5.47;;
2728;SDS011;1372;47.956;7.830;2023-05-20T03:59:37;8.53;;;5.50;;
2728;SDS011;1372;47.956;7.830;2023-05-20T04:02:06;8.03;;;4.77;;
2728;SDS011;1372;47.956;7.830;2023-05-20T04:04:35;6.27;;;5.67;;
2728;SDS011;1372;47.956;7.830;2023-05-20T04:07:04;6.23;;;5.63;;
2728;SDS011;1372;47.956;7.830;2023-05-20T04:09:35;5.67;;;4.73;;
2728;SDS011;1372;47.956;7.830;2023-05-20T04:12:04;5.73;;;4.93;;
2728;SDS011;1372;47.956;7.830;2023-05-20T04:14:34;5.70;;;4.70;;
2728;SDS011;1372;47.956;7.830;2023-05-20T04:17:04;5.80;;;5.30;;
2728;SDS011;1372;47.956;7.830;2023-05-20T04:19:33;5.60;;;5.10;;
2728;SDS011;1372;47.956;7.830;2023-05-20T04:22:04;6.70;;;5.47;;
2728;SDS011;1372;47.956;7.830;2023-05-20T04:24:34;5.60;;;5.10;;
2728;SDS011;1372;47.956;7.830;2023-05-20T04:27:06;4.60;;;4.20;;
2728;SDS011;1372;47.956;7.830;2023-05-20T04:29:35;4.33;;;3.93;;
2728;SDS011;1372;47.956;7.830;2023-05-20T04:32:04;5.43;;;4.50;;
2728;SDS011;1372;47.956;7.830;2023-05-20T04:34:36;4.57;;;4.17;;
2728;SDS011;1372;47.956;7.830;2023-05-20T04:37:05;5.93;;;5.33;;
2728;SDS011;1372;47.956;7.830;2023-05-20T04:39:36;5.40;;;4.90;;
2728;SDS011;1372;47.956;7.830;2023-05-20T04:42:05;6.30;;;5.80;;
2728;SDS011;1372;47.956;7.830;2023-05-20T04:44:34;6.53;;;5.83;;
2728;SDS011;1372;47.956;7.830;2023-05-20T04:47:03;6.70;;;5.50;;
2728;SDS011;1372;47.956;7.830;2023-05-20T04:49:34;5.33;;;4.83;;
2728;SDS011;1372;47.956;7.830;2023-05-20T04:52:04;9.07;;;7.03;;
2728;SDS011;1372;47.956;7.830;2023-05-20T04:54:33;13.47;;;9.47;;
2728;SDS011;1372;47.956;7.830;2023-05-20T04:57:03;13.53;;;10.47;;
2728;SDS011;1372;47.956;7.830;2023-05-20T04:59:32;13.03;;;10.07;;
2728;SDS011;1372;47.956;7.830;2023-05-20T05:02:01;8.10;;;7.30;;
2728;SDS011;1372;47.956;7.830;2023-05-20T05:04:30;20.53;;;13.20;;
2728;SDS011;1372;47.956;7.830;2023-05-20T05:07:00;20.90;;;14.30;;
2728;SDS011;1372;47.956;7.830;2023-05-20T05:09:31;17.10;;;12.27;;
2728;SDS011;1372;47.956;7.830;2023-05-20T05:12:00;13.20;;;9.80;;
2728;SDS011;1372;47.956;7.830;2023-05-20T05:14:31;11.20;;;8.83;;
2728;SDS011;1372;47.956;7.830;2023-05-20T05:17:00;9.50;;;8.20;;
2728;SDS011;1372;47.956;7.830;2023-05-20T05:19:28;9.50;;;7.43;;
2728;SDS011;1372;47.956;7.830;2023-05-20T05:21:57;8.83;;;7.20;;
2728;SDS011;1372;47.956;7.830;2023-05-20T05:24:26;9.10;;;6.33;;
2728;SDS011;1372;47.956;7.830;2023-05-20T05:26:55;6.97;;;5.20;;
2728;SDS011;1372;47.956;7.830;2023-05-20T05:29:25;7.50;;;6.10;;
2728;SDS011;1372;47.956;7.830;2023-05-20T05:31:54;8.23;;;6.97;;
2728;SDS011;1372;47.956;7.830;2023-05-20T05:34:23;6.20;;;5.60;;
2728;SDS011;1372;47.956;7.830;2023-05-20T05:36:52;7.03;;;6.33;;
2728;SDS011;1372;47.956;7.830;2023-05-20T05:39:21;6.43;;;5.83;;
2728;SDS011;1372;47.956;7.830;2023-05-20T05:41:52;6.40;;;5.80;;
2728;SDS011;1372;47.956;7.830;2023-05-20T05:44:22;6.70;;;6.10;;
2728;SDS011;1372;47.956;7.830;2023-05-20T05:46:52;7.67;;;6.20;;
2728;SDS011;1372;47.956;7.830;2023-05-20T05:49:21;8.73;;;6.40;;
2728;SDS011;1372;47.956;7.830;2023-05-20T05:51:50;6.40;;;5.83;;
2728;SDS011;1372;47.956;7.830;2023-05-20T05:54:19;7.37;;;6.70;;
2728;SDS011;1372;47.956;7.830;2023-05-20T05:56:49;6.70;;;5.97;;
2728;SDS011;1372;47.956;7.830;2023-05-20T05:59:19;6.93;;;6.33;;
2728;SDS011;1372;47.956;7.830;2023-05-20T06:01:49;5.77;;;5.27;;
2728;SDS011;1372;47.956;7.830;2023-05-20T06:04:19;7.07;;;6.37;;
2728;SDS011;1372;47.956;7.830;2023-05-20T06:06:48;7.43;;;6.70;;
2728;SDS011;1372;47.956;7.830;2023-05-20T06:09:17;6.93;;;6.30;;
2728;SDS011;1372;47.956;7.830;2023-05-20T06:11:46;7.23;;;6.53;;
2728;SDS011;1372;47.956;7.830;2023-05-20T06:14:15;7.00;;;6.27;;
2728;SDS011;1372;47.956;7.830;2023-05-20T06:17:00;7.30;;;6.60;;
2728;SDS011;1372;47.956;7.830;2023-05-20T06:19:29;7.07;;;6.57;;
2728;SDS011;1372;47.956;7.830;2023-05-20T06:21:58;8.67;;;7.00;;
2728;SDS011;1372;47.956;7.830;2023-05-20T06:24:27;7.90;;;6.73;;
2728;SDS011;1372;47.956;7.830;2023-05-20T06:26:58;7.50;;;6.87;;
2728;SDS011;1372;47.956;7.830;2023-05-20T06:29:27;7.27;;;6.60;;
2728;SDS011;1372;47.956;7.830;2023-05-20T06:31:56;8.30;;;6.90;;
2728;SDS011;1372;47.956;7.830;2023-05-20T06:34:26;9.17;;;7.27;;
2728;SDS011;1372;47.956;7.830;2023-05-20T06:36:55;7.67;;;6.97;;
2728;SDS011;1372;47.956;7.830;2023-05-20T06:39:25;7.90;;;7.10;;
2728;SDS011;1372;47.956;7.830;2023-05-20T06:41:56;7.97;;;6.37;;
2728;SDS011;1372;47.956;7.830;2023-05-20T06:44:32;8.43;;;7.10;;
2728;SDS011;1372;47.956;7.830;2023-05-20T06:47:12;7.30;;;6.50;;
2728;SDS011;1372;47.956;7.830;2023-05-20T06:52:43;7.40;;;6.70;;
2728;SDS011;1372;47.956;7.830;2023-05-20T06:55:21;7.83;;;6.17;;
2728;SDS011;1372;47.956;7.830;2023-05-20T06:57:53;5.90;;;5.40;;
2728;SDS011;1372;47.956;7.830;2023-05-20T07:00:24;6.43;;;5.83;;
2728;SDS011;1372;47.956;7.830;2023-05-20T07:03:07;6.40;;;5.90;;
2728;SDS011;1372;47.956;7.830;2023-05-20T07:06:06;5.60;;;5.10;;
2728;SDS011;1372;47.956;7.830;2023-05-20T07:08:45;6.43;;;5.40;;
2728;SDS011;1372;47.956;7.830;2023-05-20T07:11:22;8.10;;;6.60;;
2728;SDS011;1372;47.956;7.830;2023-05-20T07:14:00;6.80;;;6.10;;
2728;SDS011;1372;47.956;7.830;2023-05-20T07:16:32;8.27;;;6.50;;
2728;SDS011;1372;47.956;7.830;2023-05-20T07:19:08;8.20;;;5.50;;
2728;SDS011;1372;47.956;7.830;2023-05-20T07:21:48;7.37;;;5.77;;
2728;SDS011;1372;47.956;7.830;2023-05-20T07:24:17;5.83;;;5.33;;
2728;SDS011;1372;47.956;7.830;2023-05-20T07:26:54;7.13;;;5.90;;
2728;SDS011;1372;47.956;7.830;2023-05-20T07:29:23;5.80;;;5.20;;
2728;SDS011;1372;47.956;7.830;2023-05-20T07:31:55;6.53;;;5.70;;
2728;SDS011;1372;47.956;7.830;2023-05-20T07:34:24;7.00;;;6.10;;
2728;SDS011;1372;47.956;7.830;2023-05-20T07:36:55;5.77;;;5.27;;
2728;SDS011;1372;47.956;7.830;2023-05-20T07:39:24;6.57;;;5.60;;
2728;SDS011;1372;47.956;7.830;2023-05-20T07:41:53;6.93;;;6.33;;
2728;SDS011;1372;47.956;7.830;2023-05-20T07:44:22;7.00;;;6.30;;
2728;SDS011;1372;47.956;7.830;2023-05-20T07:46:52;6.90;;;6.30;;
2728;SDS011;1372;47.956;7.830;2023-05-20T07:49:22;7.33;;;6.60;;
2728;SDS011;1372;47.956;7.830;2023-05-20T07:51:51;6.10;;;5.33;;
2728;SDS011;1372;47.956;7.830;2023-05-20T07:54:21;7.77;;;7.03;;
2728;SDS011;1372;47.956;7.830;2023-05-20T07:56:50;7.97;;;6.30;;
2728;SDS011;1372;47.956;7.830;2023-05-20T07:59:19;7.03;;;6.27;;
2728;SDS011;1372;47.956;7.830;2023-05-20T08:01:48;7.10;;;6.50;;
2728;SDS011;1372;47.956;7.830;2023-05-20T08:04:17;5.90;;;5.30;;
2728;SDS011;1372;47.956;7.830;2023-05-20T08:06:46;5.70;;;5.20;;
2728;SDS011;1372;47.956;7.830;2023-05-20T08:09:15;8.40;;;6.20;;
2728;SDS011;1372;47.956;7.830;2023-05-20T08:11:45;6.37;;;5.77;;
2728;SDS011;1372;47.956;7.830;2023-05-20T08:14:14;11.20;;;5.23;;
2728;SDS011;1372;47.956;7.830;2023-05-20T08:16:43;6.03;;;5.37;;
2728;SDS011;1372;47.956;7.830;2023-05-20T08:19:12;6.23;;;5.73;;
2728;SDS011;1372;47.956;7.830;2023-05-20T08:21:41;6.13;;;5.50;;
2728;SDS011;1372;47.956;7.830;2023-05-20T08:24:12;9.80;;;5.90;;
2728;SDS011;1372;47.956;7.830;2023-05-20T08:26:41;5.13;;;4.73;;
2728;SDS011;1372;47.956;7.830;2023-05-20T08:29:14;6.60;;;5.70;;
2728;SDS011;1372;47.956;7.830;2023-05-20T08:31:43;6.37;;;5.83;;
2728;SDS011;1372;47.956;7.830;2023-05-20T08:34:12;5.60;;;5.10;;
2728;SDS011;1372;47.956;7.830;2023-05-20T08:36:41;6.57;;;5.90;;
2728;SDS011;1372;47.956;7.830;2023-05-20T08:39:10;7.47;;;6.47;;
2728;SDS011;1372;47.956;7.830;2023-05-20T08:41:40;8.57;;;6.43;;
2728;SDS011;1372;47.956;7.830;2023-05-20T08:44:08;6.57;;;5.50;;
2728;SDS011;1372;47.956;7.830;2023-05-20T08:46:39;6.77;;;6.17;;
2728;SDS011;1372;47.956;7.830;2023-05-20T08:49:08;6.00;;;5.40;;
2728;SDS011;1372;47.956;7.830;2023-05-20T08:51:39;6.77;;;5.83;;
2728;SDS011;1372;47.956;7.830;2023-05-20T08:54:09;6.00;;;5.50;;
2728;SDS011;1372;47.956;7.830;2023-05-20T08:56:38;6.60;;;6.00;;
2728;SDS011;1372;47.956;7.830;2023-05-20T08:59:08;6.70;;;6.20;;
2728;SDS011;1372;47.956;7.830;2023-05-20T09:01:40;6.40;;;5.90;;
2728;SDS011;1372;47.956;7.830;2023-05-20T09:04:12;6.00;;;5.40;;
2728;SDS011;1372;47.956;7.830;2023-05-20T09:06:41;6.30;;;5.70;;
2728;SDS011;1372;47.956;7.830;2023-05-20T09:09:10;6.93;;;6.30;;
2728;SDS011;1372;47.956;7.830;2023-05-20T09:11:40;7.33;;;6.63;;
2728;SDS011;1372;47.956;7.830;2023-05-20T09:14:09;7.10;;;6.50;;
2728;SDS011;1372;47.956;7.830;2023-05-20T09:16:41;6.80;;;6.17;;
2728;SDS011;1372;47.956;7.830;2023-05-20T09:19:10;6.60;;;6.00;;
2728;SDS011;1372;47.956;7.830;2023-05-20T09:21:39;6.53;;;5.93;;
2728;SDS011;1372;47.956;7.830;2023-05-20T09:24:09;6.80;;;6.20;;
2728;SDS011;1372;47.956;7.830;2023-05-20T09:26:38;6.57;;;5.97;;
2728;SDS011;1372;47.956;7.830;2023-05-20T09:29:07;7.57;;;6.20;;
2728;SDS011;1372;47.956;7.830;2023-05-20T09:31:36;6.57;;;5.97;;
2728;SDS011;1372;47.956;7.830;2023-05-20T09:34:06;6.10;;;5.50;;
2728;SDS011;1372;47.956;7.830;2023-05-20T09:36:35;7.27;;;6.63;;
2728;SDS011;1372;47.956;7.830;2023-05-20T09:39:08;6.43;;;5.90;;
2728;SDS011;1372;47.956;7.830;2023-05-20T09:42:00;6.60;;;5.90;;
2728;SDS011;1372;47.956;7.830;2023-05-20T09:44:32;7.30;;;6.60;;
2728;SDS011;1372;47.956;7.830;2023-05-20T09:47:02;5.80;;;5.30;;
2728;SDS011;1372;47.956;7.830;2023-05-20T09:49:35;6.80;;;6.20;;
2728;SDS011;1372;47.956;7.830;2023-05-20T09:52:05;6.03;;;5.43;;
2728;SDS011;1372;47.956;7.830;2023-05-20T09:54:37;6.57;;;5.97;;
2728;SDS011;1372;47.956;7.830;2023-05-20T10:00:55;7.63;;;6.90;;
2728;SDS011;1372;47.956;7.830;2023-05-20T10:03:24;6.83;;;6.13;;
2728;SDS011;1372;47.956;7.830;2023-05-20T10:06:08;6.10;;;5.60;;
2728;SDS011;1372;47.956;7.830;2023-05-20T10:09:13;6.30;;;5.67;;
2728;SDS011;1372;47.956;7.830;2023-05-20T10:12:00;5.77;;;5.27;;
2728;SDS011;1372;47.956;7.830;2023-05-20T10:14:42;5.67;;;5.13;;
2728;SDS011;1372;47.956;7.830;2023-05-20T10:17:24;6.93;;;6.30;;
2728;SDS011;1372;47.956;7.830;2023-05-20T10:20:05;6.60;;;5.40;;
2728;SDS011;1372;47.956;7.830;2023-05-20T10:22:38;6.33;;;5.73;;
2728;SDS011;1372;47.956;7.830;2023-05-20T10:25:12;6.57;;;5.97;;
2728;SDS011;1372;47.956;7.830;2023-05-20T10:28:02;6.30;;;5.70;;
2728;SDS011;1372;47.956;7.830;2023-05-20T10:30:33;6.40;;;5.83;;
2728;SDS011;1372;47.956;7.830;2023-05-20T10:33:05;8.37;;;6.90;;
2728;SDS011;1372;47.956;7.830;2023-05-20T10:35:34;6.60;;;6.00;;
2728;SDS011;1372;47.956;7.830;2023-05-20T10:38:09;6.90;;;6.30;;
2728;SDS011;1372;47.956;7.830;2023-05-20T10:40:41;13.43;;;7.83;;
2728;SDS011;1372;47.956;7.830;2023-05-20T10:43:11;5.33;;;4.90;;
2728;SDS011;1372;47.956;7.830;2023-05-20T10:45:48;7.00;;;5.90;;
2728;SDS011;1372;47.956;7.830;2023-05-20T10:48:19;6.90;;;6.30;;
2728;SDS011;1372;47.956;7.830;2023-05-20T10:50:53;7.00;;;6.30;;
2728;SDS011;1372;47.956;7.830;2023-05-20T10:53:25;6.90;;;6.30;;
2728;SDS011;1372;47.956;7.830;2023-05-20T10:56:00;6.50;;;6.00;;
2728;SDS011;1372;47.956;7.830;2023-05-20T10:58:35;6.87;;;6.23;;
2728;SDS011;1372;47.956;7.830;2023-05-20T11:01:08;6.70;;;6.10;;
2728;SDS011;1372;47.956;7.830;2023-05-20T11:03:38;6.47;;;5.97;;
2728;SDS011;1372;47.956;7.830;2023-05-20T11:06:10;6.77;;;6.10;;
2728;SDS011;1372;47.956;7.830;2023-05-20T11:08:45;6.70;;;6.10;;
2728;SDS011;1372;47.956;7.830;2023-05-20T11:11:16;6.93;;;6.23;;
2728;SDS011;1372;47.956;7.830;2023-05-20T11:13:49;5.90;;;5.40;;
2728;SDS011;1372;47.956;7.830;2023-05-20T11:16:19;10.10;;;5.17;;
2728;SDS011;1372;47.956;7.830;2023-05-20T11:18:49;6.30;;;5.70;;
2728;SDS011;1372;47.956;7.830;2023-05-20T11:21:18;7.40;;;6.80;;
2728;SDS011;1372;47.956;7.830;2023-05-20T11:23:49;6.07;;;5.57;;
2728;SDS011;1372;47.956;7.830;2023-05-20T11:26:19;6.43;;;5.83;;
2728;SDS011;1372;47.956;7.830;2023-05-20T11:28:49;6.13;;;5.60;;
2728;SDS011;1372;47.956;7.830;2023-05-20T11:31:18;7.07;;;5.80;;
2728;SDS011;1372;47.956;7.830;2023-05-20T11:33:49;7.03;;;6.30;;
2728;SDS011;1372;47.956;7.830;2023-05-20T11:36:19;5.80;;;5.30;;
2728;SDS011;1372;47.956;7.830;2023-05-20T11:38:57;6.13;;;5.53;;
2728;SDS011;1372;47.956;7.830;2023-05-20T11:41:28;6.53;;;6.00;;
2728;SDS011;1372;47.956;7.830;2023-05-20T11:43:59;5.47;;;5.00;;
2728;SDS011;1372;47.956;7.830;2023-05-20T11:46:28;6.70;;;6.00;;
2728;SDS011;1372;47.956;7.830;2023-05-20T11:48:58;7.00;;;6.40;;
2728;SDS011;1372;47.956;7.830;2023-05-20T11:51:28;5.43;;;5.03;;
2728;SDS011;1372;47.956;7.830;2023-05-20T11:54:02;6.67;;;6.10;;
2728;SDS011;1372;47.956;7.830;2023-05-20T11:56:50;6.30;;;5.80;;
2728;SDS011;1372;47.956;7.830;2023-05-20T11:59:25;5.53;;;5.10;;
2728;SDS011;1372;47.956;7.830;2023-05-20T12:01:55;6.07;;;5.50;;
2728;SDS011;1372;47.956;7.830;2023-05-20T12:04:26;6.57;;;6.00;;
2728;SDS011;1372;47.956;7.830;2023-05-20T12:06:56;6.87;;;6.30;;
2728;SDS011;1372;47.956;7.830;2023-05-20T12:09:26;6.50;;;5.97;;
2728;SDS011;1372;47.956;7.830;2023-05-20T12:11:56;5.60;;;5.20;;
2728;SDS011;1372;47.956;7.830;2023-05-20T12:14:27;5.90;;;5.30;;
2728;SDS011;1372;47.956;7.830;2023-05-20T12:16:56;7.20;;;5.87;;
2728;SDS011;1372;47.956;7.830;2023-05-20T12:19:25;6.33;;;5.73;;
2728;SDS011;1372;47.956;7.830;2023-05-20T12:21:54;6.53;;;6.03;;
2728;SDS011;1372;47.956;7.830;2023-05-20T12:24:23;5.70;;;5.30;;
2728;SDS011;1372;47.956;7.830;2023-05-20T12:26:54;6.00;;;5.50;;
2728;SDS011;1372;47.956;7.830;2023-05-20T12:29:23;6.63;;;6.03;;
2728;SDS011;1372;47.956;7.830;2023-05-20T12:31:55;6.20;;;5.70;;
2728;SDS011;1372;47.956;7.830;2023-05-20T12:34:24;6.87;;;6.27;;
2728;SDS011;1372;47.956;7.830;2023-05-20T12:36:55;6.10;;;5.53;;
2728;SDS011;1372;47.956;7.830;2023-05-20T12:39:27;5.73;;;5.33;;
2728;SDS011;1372;47.956;7.830;2023-05-20T12:41:57;6.00;;;5.50;;
2728;SDS011;1372;47.956;7.830;2023-05-20T12:44:26;6.23;;;5.73;;
2728;SDS011;1372;47.956;7.830;2023-05-20T12:46:58;5.43;;;5.03;;
2728;SDS011;1372;47.956;7.830;2023-05-20T12:49:28;6.63;;;5.17;;
2728;SDS011;1372;47.956;7.830;2023-05-20T12:51:57;6.33;;;4.77;;
2728;SDS011;1372;47.956;7.830;2023-05-20T12:54:29;5.50;;;5.00;;
2728;SDS011;1372;47.956;7.830;2023-05-20T12:57:01;5.63;;;5.23;;
2728;SDS011;1372;47.956;7.830;2023-05-20T12:59:36;5.83;;;5.33;;
2728;SDS011;1372;47.956;7.830;2023-05-20T13:02:07;8.27;;;6.40;;
2728;SDS011;1372;47.956;7.830;2023-05-20T13:04:36;5.90;;;5.50;;
2728;SDS011;1372;47.956;7.830;2023-05-20T13:07:06;6.40;;;5.90;;
2728;SDS011;1372;47.956;7.830;2023-05-20T13:09:35;5.80;;;5.30;;
2728;SDS011;1372;47.956;7.830;2023-05-20T13:12:10;6.20;;;5.70;;
2728;SDS011;1372;47.956;7.830;2023-05-20T13:14:40;5.10;;;4.70;;
2728;SDS011;1372;47.956;7.830;2023-05-20T13:17:11;6.77;;;6.17;;
2728;SDS011;1372;47.956;7.830;2023-05-20T13:19:40;5.80;;;5.40;;
2728;SDS011;1372;47.956;7.830;2023-05-20T13:22:11;5.40;;;5.00;;
2728;SDS011;1372;47.956;7.830;2023-05-20T13:24:40;6.80;;;6.30;;
2728;SDS011;1372;47.956;7.830;2023-05-20T13:27:10;6.30;;;5.70;;
2728;SDS011;1372;47.956;7.830;2023-05-20T13:29:39;5.90;;;5.40;;
2728;SDS011;1372;47.956;7.830;2023-05-20T13:32:12;5.90;;;5.40;;
2728;SDS011;1372;47.956;7.830;2023-05-20T13:34:48;5.73;;;5.30;;
2728;SDS011;1372;47.956;7.830;2023-05-20T13:37:19;6.77;;;6.13;;
2728;SDS011;1372;47.956;7.830;2023-05-20T13:39:48;5.80;;;5.20;;
2728;SDS011;1372;47.956;7.830;2023-05-20T13:42:19;5.53;;;5.03;;
2728;SDS011;1372;47.956;7.830;2023-05-20T13:44:49;5.93;;;5.30;;
2728;SDS011;1372;47.956;7.830;2023-05-20T13:47:26;6.17;;;5.67;;
2728;SDS011;1372;47.956;7.830;2023-05-20T13:49:55;7.00;;;5.40;;
2728;SDS011;1372;47.956;7.830;2023-05-20T13:52:26;6.00;;;5.57;;
2728;SDS011;1372;47.956;7.830;2023-05-20T13:54:55;5.60;;;5.20;;
2728;SDS011;1372;47.956;7.830;2023-05-20T13:57:26;6.20;;;5.70;;
2728;SDS011;1372;47.956;7.830;2023-05-20T13:59:55;5.80;;;5.40;;
2728;SDS011;1372;47.956;7.830;2023-05-20T14:02:24;6.70;;;6.10;;
2728;SDS011;1372;47.956;7.830;2023-05-20T14:04:54;6.13;;;5.73;;
2728;SDS011;1372;47.956;7.830;2023-05-20T14:07:23;6.43;;;4.93;;
2728;SDS011;1372;47.956;7.830;2023-05-20T14:09:52;5.70;;;5.30;;
2728;SDS011;1372;47.956;7.830;2023-05-20T14:12:21;5.43;;;5.03;;
2728;SDS011;1372;47.956;7.830;2023-05-20T14:14:52;5.37;;;4.90;;
2728;SDS011;1372;47.956;7.830;2023-05-20T14:17:21;6.30;;;5.77;;
2728;SDS011;1372;47.956;7.830;2023-05-20T14:19:50;5.13;;;4.73;;
2728;SDS011;1372;47.956;7.830;2023-05-20T14:22:19;5.07;;;4.67;;
2728;SDS011;1372;47.956;7.830;2023-05-20T14:24:48;6.30;;;5.00;;
2728;SDS011;1372;47.956;7.830;2023-05-20T14:27:17;5.50;;;5.10;;
2728;SDS011;1372;47.956;7.830;2023-05-20T14:29:46;5.47;;;4.93;;
2728;SDS011;1372;47.956;7.830;2023-05-20T14:32:16;6.13;;;5.60;;
2728;SDS011;1372;47.956;7.830;2023-05-20T14:34:45;5.40;;;4.97;;
2728;SDS011;1372;47.956;7.830;2023-05-20T14:37:14;4.97;;;4.60;;
2728;SDS011;1372;47.956;7.830;2023-05-20T14:39:43;5.37;;;4.87;;
2728;SDS011;1372;47.956;7.830;2023-05-20T14:42:12;4.87;;;4.50;;
2728;SDS011;1372;47.956;7.830;2023-05-20T14:44:41;5.20;;;4.80;;
2728;SDS011;1372;47.956;7.830;2023-05-20T14:47:10;5.50;;;5.03;;
2728;SDS011;1372;47.956;7.830;2023-05-20T14:49:44;5.07;;;4.67;;
2728;SDS011;1372;47.956;7.830;2023-05-20T14:52:15;5.77;;;5.37;;
2728;SDS011;1372;47.956;7.830;2023-05-20T14:54:44;5.27;;;4.87;;
2728;SDS011;1372;47.956;7.830;2023-05-20T14:57:13;5.00;;;4.60;;
2728;SDS011;1372;47.956;7.830;2023-05-20T14:59:42;5.77;;;5.30;;
2728;SDS011;1372;47.956;7.830;2023-05-20T15:02:12;5.43;;;5.03;;
2728;SDS011;1372;47.956;7.830;2023-05-20T15:04:43;5.83;;;5.43;;
2728;SDS011;1372;47.956;7.830;2023-05-20T15:07:14;5.70;;;5.30;;
2728;SDS011;1372;47.956;7.830;2023-05-20T15:09:46;5.57;;;5.10;;
2728;SDS011;1372;47.956;7.830;2023-05-20T15:12:15;6.70;;;6.10;;
2728;SDS011;1372;47.956;7.830;2023-05-20T15:14:44;6.00;;;5.50;;
2728;SDS011;1372;47.956;7.830;2023-05-20T15:17:14;7.13;;;6.60;;
2728;SDS011;1372;47.956;7.830;2023-05-20T15:19:42;5.77;;;5.27;;
2728;SDS011;1372;47.956;7.830;2023-05-20T15:22:13;5.63;;;5.23;;
2728;SDS011;1372;47.956;7.830;2023-05-20T15:24:42;5.33;;;4.93;;
2728;SDS011;1372;47.956;7.830;2023-05-20T15:27:11;6.53;;;6.03;;
2728;SDS011;1372;47.956;7.830;2023-05-20T15:29:40;6.20;;;5.60;;
2728;SDS011;1372;47.956;7.830;2023-05-20T15:32:08;5.60;;;5.20;;
2728;SDS011;1372;47.956;7.830;2023-05-20T15:34:37;5.67;;;5.27;;
2728;SDS011;1372;47.956;7.830;2023-05-20T15:37:06;6.13;;;5.67;;
2728;SDS011;1372;47.956;7.830;2023-05-20T15:39:43;6.30;;;5.50;;
2728;SDS011;1372;47.956;7.830;2023-05-20T15:42:12;6.10;;;5.17;;
2728;SDS011;1372;47.956;7.830;2023-05-20T15:44:44;6.00;;;5.40;;